createdAt,value
2023-01-28T00:01:33.745Z,37.17
2023-01-28T00:04:01.471Z,37.50
2023-01-28T00:06:28.895Z,45.67
2023-01-28T00:08:56.311Z,37.83
2023-01-28T00:11:23.985Z,39.33
2023-01-28T00:13:52.970Z,38.72
2023-01-28T00:16:22.699Z,42.13
2023-01-28T00:18:51.832Z,40.85
2023-01-28T00:21:19.260Z,34.35
2023-01-28T00:23:54.835Z,40.65
2023-01-28T00:26:23.877Z,40.30
2023-01-28T00:28:51.413Z,43.00
2023-01-28T00:31:22.379Z,39.53
2023-01-28T00:33:51.235Z,38.58
2023-01-28T00:36:19.786Z,41.83
2023-01-28T00:38:56.117Z,43.50
2023-01-28T00:41:26.236Z,48.17
2023-01-28T00:43:54.108Z,37.92
2023-01-28T00:46:22.833Z,42.70
2023-01-28T00:48:50.682Z,37.78
2023-01-28T00:51:20.118Z,43.63
2023-01-28T00:53:49.881Z,43.40
2023-01-28T00:56:19.462Z,45.53
2023-01-28T00:58:47.328Z,43.53
2023-01-28T01:01:18.445Z,40.20
2023-01-28T01:03:46.623Z,43.03
2023-01-28T01:06:16.333Z,42.75
2023-01-28T01:08:50.128Z,41.95
2023-01-28T01:11:19.014Z,43.13
2023-01-28T01:13:56.884Z,42.25
2023-01-28T01:16:27.509Z,41.40
2023-01-28T01:18:55.895Z,42.08
2023-01-28T01:21:25.082Z,40.60
2023-01-28T01:23:53.636Z,40.63
2023-01-28T01:26:22.946Z,36.67
2023-01-28T01:28:52.152Z,40.63
2023-01-28T01:31:21.427Z,39.70
2023-01-28T01:33:50.505Z,38.47
2023-01-28T01:36:20.038Z,39.70
2023-01-28T01:38:48.529Z,34.53
2023-01-28T01:41:28.932Z,42.03
2023-01-28T01:44:02.658Z,37.10
2023-01-28T01:46:39.671Z,38.85
2023-01-28T01:49:20.388Z,41.30
2023-01-28T01:51:51.137Z,39.60
2023-01-28T01:54:19.304Z,40.90
2023-01-28T01:56:47.845Z,42.65
2023-01-28T01:59:19.200Z,51.97
2023-01-28T02:01:47.328Z,45.88
2023-01-28T02:04:20.463Z,47.58
2023-01-28T02:06:48.610Z,43.63
2023-01-28T02:09:27.011Z,43.22
2023-01-28T02:11:56.947Z,49.08
2023-01-28T02:14:31.388Z,49.55
2023-01-28T02:17:02.313Z,49.88
2023-01-28T02:19:38.089Z,45.92
2023-01-28T02:22:10.294Z,48.15
2023-01-28T02:25:00.312Z,48.33
2023-01-28T02:27:58.708Z,47.90
2023-01-28T02:30:30.966Z,44.38
2023-01-28T02:33:06.999Z,44.88
2023-01-28T02:35:39.044Z,42.70
2023-01-28T02:38:13.610Z,44.65
2023-01-28T02:41:02.229Z,41.20
2023-01-28T02:43:32.489Z,45.00
2023-01-28T02:46:19.290Z,41.08
2023-01-28T02:48:47.089Z,41.03
2023-01-28T02:51:26.267Z,44.13
2023-01-28T02:54:12.800Z,43.55
2023-01-28T02:56:48.019Z,43.87
2023-01-28T02:59:37.067Z,44.00
2023-01-28T03:02:38.331Z,44.22
2023-01-28T03:05:11.980Z,47.60
2023-01-28T03:07:39.773Z,43.22
2023-01-28T03:10:10.079Z,47.45
2023-01-28T03:12:58.657Z,46.58
2023-01-28T03:15:48.366Z,49.15
2023-01-28T03:19:04.382Z,50.10
2023-01-28T03:21:55.391Z,52.15
2023-01-28T03:24:49.236Z,44.53
2023-01-28T03:27:44.740Z,41.72
2023-01-28T03:30:35.716Z,43.65
2023-01-28T03:33:23.514Z,41.83
2023-01-28T03:36:09.430Z,46.28
2023-01-28T03:38:43.043Z,47.72
2023-01-28T03:41:11.537Z,51.92
2023-01-28T03:43:39.311Z,44.67
2023-01-28T03:46:06.875Z,44.45
2023-01-28T03:48:35.570Z,44.63
2023-01-28T03:51:04.170Z,45.45
2023-01-28T03:53:33.266Z,43.13
2023-01-28T03:56:00.709Z,43.58
2023-01-28T03:58:46.069Z,44.50
2023-01-28T04:03:42.998Z,44.50
2023-01-28T04:06:10.981Z,40.55
2023-01-28T04:08:40.111Z,47.90
2023-01-28T04:11:19.366Z,45.35
2023-01-28T04:13:48.483Z,42.95
2023-01-28T04:16:17.769Z,45.47
2023-01-28T04:18:45.402Z,44.30
2023-01-28T04:21:13.887Z,40.25
2023-01-28T04:23:41.625Z,46.92
2023-01-28T04:26:09.866Z,50.53
2023-01-28T04:28:38.163Z,44.13
2023-01-28T04:31:06.872Z,44.28
2023-01-28T04:33:35.076Z,43.85
2023-01-28T04:36:02.787Z,44.47
2023-01-28T04:38:31.105Z,43.97
2023-01-28T04:40:58.764Z,43.53
2023-01-28T04:43:26.309Z,42.70
2023-01-28T04:45:54.485Z,42.47
2023-01-28T04:48:21.959Z,48.05
2023-01-28T04:50:50.927Z,41.97
2023-01-28T04:53:18.839Z,42.60
2023-01-28T04:55:46.748Z,45.28
2023-01-28T04:58:14.242Z,42.95
2023-01-28T05:00:42.572Z,43.17
2023-01-28T05:03:12.102Z,45.33
2023-01-28T05:05:39.545Z,38.95
2023-01-28T05:08:09.149Z,39.78
2023-01-28T05:10:36.812Z,40.15
2023-01-28T05:13:04.583Z,40.22
2023-01-28T05:15:32.345Z,38.78
2023-01-28T05:18:00.167Z,44.20
2023-01-28T05:20:29.132Z,45.35
2023-01-28T05:22:57.402Z,37.60
2023-01-28T05:25:24.958Z,45.12
2023-01-28T05:27:52.760Z,41.88
2023-01-28T05:30:20.946Z,43.78
2023-01-28T05:32:48.680Z,42.05
2023-01-28T05:35:16.943Z,35.35
2023-01-28T05:37:44.989Z,41.03
2023-01-28T05:40:13.120Z,39.85
2023-01-28T05:42:40.790Z,41.25
2023-01-28T05:45:10.052Z,41.75
2023-01-28T05:47:38.633Z,45.70
2023-01-28T05:50:07.461Z,48.90
2023-01-28T05:52:35.335Z,48.60
2023-01-28T05:55:03.129Z,46.53
2023-01-28T05:57:30.603Z,49.97
2023-01-28T05:59:58.362Z,43.22
2023-01-28T06:02:25.887Z,46.63
2023-01-28T06:04:54.193Z,44.38
2023-01-28T06:07:21.755Z,44.33
2023-01-28T06:09:49.385Z,47.85
2023-01-28T06:12:17.390Z,53.50
2023-01-28T06:14:46.833Z,56.65
2023-01-28T06:17:14.666Z,62.28
2023-01-28T06:19:44.295Z,68.70
2023-01-28T06:22:11.861Z,61.55
2023-01-28T06:24:39.451Z,107.55
2023-01-28T06:27:07.230Z,67.25
2023-01-28T06:29:34.682Z,68.40
2023-01-28T06:32:02.110Z,49.85
2023-01-28T06:34:29.897Z,51.70
2023-01-28T06:36:57.318Z,52.13
2023-01-28T06:39:27.000Z,53.75
2023-01-28T06:41:54.687Z,59.13
2023-01-28T06:44:23.542Z,52.15
2023-01-28T06:46:51.148Z,55.33
2023-01-28T06:49:18.812Z,52.33
2023-01-28T06:51:46.194Z,54.97
2023-01-28T06:54:13.626Z,55.53
2023-01-28T06:56:41.377Z,47.10
2023-01-28T06:59:08.927Z,50.85
2023-01-28T07:01:36.640Z,47.05
2023-01-28T07:04:04.452Z,51.17
2023-01-28T07:06:31.818Z,47.45
2023-01-28T07:08:59.233Z,41.37
2023-01-28T07:11:27.003Z,41.22
2023-01-28T07:13:54.481Z,39.03
2023-01-28T07:16:22.340Z,42.95
2023-01-28T07:18:51.231Z,39.58
2023-01-28T07:21:18.634Z,38.22
2023-01-28T07:23:46.018Z,40.17
2023-01-28T07:26:14.370Z,43.40
2023-01-28T07:28:41.751Z,41.67
2023-01-28T07:31:09.382Z,46.92
2023-01-28T07:33:37.162Z,39.75
2023-01-28T07:36:04.930Z,41.80
2023-01-28T07:38:32.339Z,37.22
2023-01-28T07:41:00.023Z,36.33
2023-01-28T07:43:27.404Z,35.40
2023-01-28T07:45:54.824Z,37.30
2023-01-28T07:48:22.573Z,42.03
2023-01-28T07:50:51.890Z,35.92
2023-01-28T07:53:20.131Z,34.67
2023-01-28T07:55:47.820Z,40.17
2023-01-28T07:58:15.243Z,41.88
2023-01-28T08:00:42.662Z,37.95
2023-01-28T08:03:15.833Z,37.45
2023-01-28T08:05:48.317Z,35.80
2023-01-28T08:08:16.830Z,35.20
2023-01-28T08:10:45.073Z,40.88
2023-01-28T08:13:14.061Z,37.53
2023-01-28T08:15:41.978Z,38.47
2023-01-28T08:18:13.198Z,44.45
2023-01-28T08:20:42.982Z,51.45
2023-01-28T08:23:16.248Z,44.65
2023-01-28T08:25:44.104Z,42.35
2023-01-28T08:28:12.383Z,43.42
2023-01-28T08:30:40.666Z,38.50
2023-01-28T08:33:09.818Z,40.35
2023-01-28T08:35:37.752Z,40.45
2023-01-28T08:38:06.563Z,40.55
2023-01-28T08:40:34.370Z,41.00
2023-01-28T08:43:02.494Z,46.45
2023-01-28T08:45:30.313Z,41.13
2023-01-28T08:48:03.128Z,37.85
2023-01-28T08:50:34.386Z,37.78
2023-01-28T08:53:04.616Z,40.97
2023-01-28T08:55:33.597Z,40.75
2023-01-28T08:58:05.938Z,40.72
2023-01-28T09:00:34.944Z,35.97
2023-01-28T09:03:04.709Z,38.33
2023-01-28T09:05:37.466Z,36.35
2023-01-28T09:08:13.163Z,26.98
2023-01-28T09:10:42.139Z,37.50
2023-01-28T09:13:16.132Z,33.60
2023-01-28T09:15:44.271Z,36.88
2023-01-28T09:18:11.710Z,34.60
2023-01-28T09:20:40.317Z,36.80
2023-01-28T09:23:08.270Z,43.22
2023-01-28T09:25:39.003Z,36.78
2023-01-28T09:28:06.461Z,39.10
2023-01-28T09:30:37.065Z,39.28
2023-01-28T09:33:06.182Z,35.00
2023-01-28T09:35:34.381Z,35.85
2023-01-28T09:38:01.810Z,42.60
2023-01-28T09:40:34.727Z,36.97
2023-01-28T09:43:38.167Z,36.38
2023-01-28T09:46:06.555Z,39.83
2023-01-28T09:48:42.073Z,42.50
2023-01-28T09:51:27.262Z,38.08
2023-01-28T09:53:58.532Z,37.03
2023-01-28T09:56:30.628Z,40.50
2023-01-28T09:59:06.137Z,39.55
2023-01-28T10:01:44.736Z,45.65
2023-01-28T10:04:23.235Z,42.38
2023-01-28T10:07:11.248Z,42.90
2023-01-28T10:09:53.922Z,40.25
2023-01-28T10:12:42.629Z,38.38
2023-01-28T10:15:34.681Z,33.72
2023-01-28T10:18:16.556Z,34.42
2023-01-28T10:20:56.133Z,29.55
2023-01-28T10:23:49.305Z,36.47
2023-01-28T10:26:23.400Z,34.67
2023-01-28T10:28:55.775Z,33.85
2023-01-28T10:31:24.660Z,37.33
2023-01-28T10:33:52.123Z,40.83
2023-01-28T10:36:19.727Z,39.00
2023-01-28T10:38:47.580Z,37.42
2023-01-28T10:41:20.955Z,36.20
2023-01-28T10:43:49.862Z,42.72
2023-01-28T10:46:28.459Z,36.72
2023-01-28T10:49:41.878Z,39.55
2023-01-28T10:52:14.118Z,36.65
2023-01-28T10:54:41.791Z,43.00
2023-01-28T10:57:14.678Z,35.58
2023-01-28T10:59:43.026Z,43.90
2023-01-28T11:02:27.288Z,34.55
2023-01-28T11:05:28.665Z,32.72
2023-01-28T11:08:19.446Z,38.85
2023-01-28T11:10:48.889Z,34.85
2023-01-28T11:13:21.721Z,32.85
2023-01-28T11:16:17.616Z,31.35
2023-01-28T11:18:52.853Z,34.70
2023-01-28T11:21:23.762Z,36.25
2023-01-28T11:24:05.026Z,37.05
2023-01-28T11:26:38.347Z,36.95
2023-01-28T11:29:06.344Z,35.55
2023-01-28T11:31:40.985Z,37.38
2023-01-28T11:34:08.400Z,33.30
2023-01-28T11:36:36.086Z,31.92
2023-01-28T11:39:18.234Z,38.88
2023-01-28T11:41:47.221Z,38.20
2023-01-28T11:44:23.692Z,36.15
2023-01-28T11:47:12.449Z,37.33
2023-01-28T11:49:49.021Z,34.13
2023-01-28T11:52:48.630Z,28.23
2023-01-28T11:55:40.764Z,31.87
2023-01-28T11:58:32.210Z,34.65
2023-01-28T12:01:17.877Z,33.85
2023-01-28T12:04:20.811Z,31.30
2023-01-28T12:07:13.253Z,30.85
2023-01-28T12:10:24.965Z,27.75
2023-01-28T12:12:58.729Z,33.45
2023-01-28T12:16:01.790Z,31.42
2023-01-28T12:18:41.269Z,32.92
2023-01-28T12:21:39.241Z,32.55
2023-01-28T12:24:21.861Z,29.58
2023-01-28T12:26:55.441Z,31.73
2023-01-28T12:29:27.388Z,28.87
2023-01-28T12:32:08.543Z,33.75
2023-01-28T12:34:50.222Z,27.80
2023-01-28T12:37:47.262Z,34.13
2023-01-28T12:40:45.449Z,32.28
2023-01-28T12:43:26.784Z,33.35
2023-01-28T12:45:58.043Z,29.33
2023-01-28T12:48:30.748Z,24.95
2023-01-28T12:51:12.753Z,35.38
2023-01-28T12:53:47.120Z,27.80
2023-01-28T12:56:18.071Z,31.42
2023-01-28T12:58:50.785Z,32.30
2023-01-28T13:01:35.756Z,31.33
2023-01-28T13:04:12.721Z,31.25
2023-01-28T13:07:02.854Z,33.03
2023-01-28T13:09:36.215Z,29.12
2023-01-28T13:12:04.571Z,32.90
2023-01-28T13:14:33.352Z,30.08
2023-01-28T13:17:11.963Z,30.23
2023-01-28T13:19:42.721Z,32.03
2023-01-28T13:22:31.817Z,27.73
2023-01-28T13:25:23.181Z,31.20
2023-01-28T13:28:06.821Z,23.67
2023-01-28T13:30:47.177Z,31.87
2023-01-28T13:33:32.507Z,31.50
2023-01-28T13:36:06.010Z,35.42
2023-01-28T13:38:34.147Z,28.67
2023-01-28T13:41:04.523Z,28.62
2023-01-28T13:43:34.907Z,28.65
2023-01-28T13:46:13.862Z,30.23
2023-01-28T13:48:46.970Z,23.92
2023-01-28T13:51:23.540Z,31.33
2023-01-28T13:53:58.820Z,29.10
2023-01-28T13:56:29.905Z,23.70
2023-01-28T13:59:08.121Z,31.15
2023-01-28T14:01:47.290Z,31.87
2023-01-28T14:04:36.599Z,25.90
2023-01-28T14:07:39.413Z,29.15
2023-01-28T14:10:26.713Z,26.70
2023-01-28T14:13:26.970Z,39.30
2023-01-28T14:15:59.047Z,31.67
2023-01-28T14:18:29.418Z,33.40
2023-01-28T14:21:01.605Z,29.23
2023-01-28T14:23:32.329Z,29.27
2023-01-28T14:26:10.142Z,26.85
2023-01-28T14:29:22.813Z,29.70
2023-01-28T14:31:51.054Z,28.00
2023-01-28T14:34:47.864Z,32.03
2023-01-28T14:37:18.854Z,32.67
2023-01-28T14:39:52.712Z,32.80
2023-01-28T14:42:25.788Z,28.25
2023-01-28T14:45:29.847Z,31.83
2023-01-28T14:48:20.870Z,33.63
2023-01-28T14:51:25.732Z,31.27
2023-01-28T14:54:11.890Z,27.92
2023-01-28T14:57:11.613Z,26.35
2023-01-28T14:59:43.455Z,29.52
2023-01-28T15:02:20.179Z,27.13
2023-01-28T15:04:48.220Z,29.08
2023-01-28T15:07:26.687Z,35.35
2023-01-28T15:10:05.385Z,35.13
2023-01-28T15:12:38.982Z,26.80
2023-01-28T15:15:28.390Z,29.30
2023-01-28T15:18:02.227Z,27.95
2023-01-28T15:20:30.160Z,29.77
2023-01-28T15:22:58.278Z,31.62
2023-01-28T15:25:28.631Z,26.73
2023-01-28T15:27:59.824Z,35.45
2023-01-28T15:30:30.579Z,34.78
2023-01-28T15:33:17.100Z,33.53
2023-01-28T15:35:49.007Z,31.80
2023-01-28T15:38:20.274Z,35.92
2023-01-28T15:40:55.121Z,32.25
2023-01-28T15:43:25.984Z,41.22
2023-01-28T15:45:57.702Z,31.77
2023-01-28T15:48:27.513Z,36.40
2023-01-28T15:51:25.065Z,32.60
2023-01-28T15:53:57.497Z,32.47
2023-01-28T15:56:27.872Z,33.20
2023-01-28T15:59:16.717Z,32.80
2023-01-28T16:01:44.269Z,35.65
2023-01-28T16:04:27.109Z,55.47
2023-01-28T16:06:56.544Z,35.33
2023-01-28T16:09:28.705Z,33.22
2023-01-28T16:12:04.054Z,34.67
2023-01-28T16:14:37.804Z,32.38
2023-01-28T16:17:05.424Z,30.77
2023-01-28T16:19:41.756Z,31.87
2023-01-28T16:22:21.804Z,34.47
2023-01-28T16:24:53.029Z,29.45
2023-01-28T16:27:22.300Z,33.00
2023-01-28T16:29:50.526Z,30.88
2023-01-28T16:32:33.497Z,30.30
2023-01-28T16:35:02.025Z,34.58
2023-01-28T16:37:29.948Z,35.40
2023-01-28T16:40:00.290Z,41.75
2023-01-28T16:42:31.927Z,28.45
2023-01-28T16:44:59.991Z,37.38
2023-01-28T16:47:30.639Z,29.10
2023-01-28T16:49:58.757Z,33.78
2023-01-28T16:52:27.032Z,36.20
2023-01-28T16:54:54.801Z,40.75
2023-01-28T16:57:22.855Z,27.98
2023-01-28T16:59:50.598Z,35.10
2023-01-28T17:02:18.106Z,34.22
2023-01-28T17:04:46.835Z,35.20
2023-01-28T17:07:14.598Z,37.20
2023-01-28T17:09:42.194Z,33.05
2023-01-28T17:12:10.052Z,33.03
2023-01-28T17:14:39.419Z,36.45
2023-01-28T17:17:07.029Z,37.42
2023-01-28T17:19:35.108Z,36.08
2023-01-28T17:22:02.613Z,37.67
2023-01-28T17:24:30.605Z,36.10
2023-01-28T17:26:58.694Z,33.97
2023-01-28T17:29:27.282Z,31.62
2023-01-28T17:31:55.376Z,34.60
2023-01-28T17:34:24.023Z,38.25
2023-01-28T17:36:51.907Z,38.67
2023-01-28T17:39:20.113Z,35.85
2023-01-28T17:41:52.139Z,36.30
2023-01-28T17:44:20.130Z,32.60
2023-01-28T17:46:48.489Z,34.17
2023-01-28T17:49:16.868Z,34.50
2023-01-28T17:51:45.199Z,37.60
2023-01-28T17:54:14.436Z,34.63
2023-01-28T17:56:42.211Z,36.03
2023-01-28T17:59:11.675Z,40.05
2023-01-28T18:01:40.860Z,34.20
2023-01-28T18:04:10.362Z,31.23
2023-01-28T18:06:38.224Z,36.25
2023-01-28T18:09:07.532Z,32.70
2023-01-28T18:11:37.632Z,29.40
2023-01-28T18:14:05.953Z,32.85
2023-01-28T18:16:33.929Z,27.15
2023-01-28T18:19:03.104Z,33.63
2023-01-28T18:21:50.525Z,29.95
2023-01-28T18:24:24.473Z,31.90
2023-01-28T18:26:55.275Z,31.37
2023-01-28T18:29:24.201Z,32.45
2023-01-28T18:31:55.192Z,31.92
2023-01-28T18:34:26.590Z,29.37
2023-01-28T18:36:54.994Z,26.23
2023-01-28T18:39:23.789Z,27.25
2023-01-28T18:41:56.482Z,24.90
2023-01-28T18:44:27.012Z,27.98
2023-01-28T18:46:54.915Z,31.48
2023-01-28T18:49:23.188Z,31.58
2023-01-28T18:51:51.425Z,27.80
2023-01-28T18:54:20.865Z,30.35
2023-01-28T18:56:49.351Z,31.92
2023-01-28T18:59:17.856Z,28.02
2023-01-28T19:01:48.265Z,29.10
2023-01-28T19:04:16.935Z,36.55
2023-01-28T19:06:46.531Z,33.55
2023-01-28T19:09:15.868Z,34.85
2023-01-28T19:11:45.180Z,34.47
2023-01-28T19:14:14.875Z,34.28
2023-01-28T19:16:50.364Z,33.78
2023-01-28T19:19:19.129Z,31.87
2023-01-28T19:21:47.940Z,31.12
2023-01-28T19:24:17.521Z,31.55
2023-01-28T19:26:45.907Z,36.03
2023-01-28T19:29:16.388Z,28.40
2023-01-28T19:31:44.793Z,27.30
2023-01-28T19:34:13.410Z,29.95
2023-01-28T19:36:42.802Z,28.62
2023-01-28T19:39:11.712Z,32.83
2023-01-28T19:41:41.668Z,30.85
2023-01-28T19:44:09.923Z,29.92
2023-01-28T19:46:37.599Z,29.98
2023-01-28T19:49:06.588Z,30.77
2023-01-28T19:51:35.447Z,30.45
2023-01-28T19:54:03.706Z,33.65
2023-01-28T19:56:36.538Z,30.67
2023-01-28T19:59:04.990Z,31.17
2023-01-28T20:01:36.059Z,30.17
2023-01-28T20:04:05.071Z,25.42
2023-01-28T20:06:34.164Z,28.17
2023-01-28T20:09:09.089Z,29.00
2023-01-28T20:11:38.511Z,29.12
2023-01-28T20:14:06.789Z,30.62
2023-01-28T20:16:36.145Z,31.77
2023-01-28T20:19:06.997Z,31.62
2023-01-28T20:21:36.158Z,35.47
2023-01-28T20:24:06.931Z,29.00
2023-01-28T20:26:37.496Z,31.50
2023-01-28T20:29:11.046Z,32.22
2023-01-28T20:31:40.743Z,35.15
2023-01-28T20:34:15.127Z,32.90
2023-01-28T20:36:43.682Z,30.50
2023-01-28T20:39:12.738Z,31.92
2023-01-28T20:41:41.276Z,32.33
2023-01-28T20:44:09.782Z,34.58
2023-01-28T20:46:39.391Z,32.33
2023-01-28T20:49:08.112Z,29.02
2023-01-28T20:51:36.903Z,29.50
2023-01-28T20:54:06.043Z,33.85
2023-01-28T20:56:34.666Z,32.33
2023-01-28T20:59:04.527Z,36.10
2023-01-28T21:01:34.752Z,38.65
2023-01-28T21:04:10.536Z,34.90
2023-01-28T21:06:40.334Z,35.60
2023-01-28T21:09:08.694Z,37.38
2023-01-28T21:11:36.825Z,36.53
2023-01-28T21:14:04.638Z,35.47
2023-01-28T21:16:32.793Z,32.15
2023-01-28T21:19:00.546Z,31.20
2023-01-28T21:21:29.287Z,32.10
2023-01-28T21:24:01.113Z,29.42
2023-01-28T21:26:29.915Z,32.90
2023-01-28T21:28:57.942Z,28.45
2023-01-28T21:31:27.022Z,28.58
2023-01-28T21:34:01.540Z,29.52
2023-01-28T21:36:34.231Z,35.85
2023-01-28T21:39:03.745Z,29.45
2023-01-28T21:41:33.030Z,30.00
2023-01-28T21:44:00.419Z,38.47
2023-01-28T21:46:30.947Z,34.22
2023-01-28T21:49:00.304Z,28.45
2023-01-28T21:51:46.062Z,32.90
2023-01-28T21:54:18.387Z,34.50
2023-01-28T21:56:48.672Z,35.58
2023-01-28T21:59:29.325Z,33.17
2023-01-28T22:02:05.761Z,29.92
2023-01-28T22:04:37.965Z,32.90
2023-01-28T22:07:10.082Z,33.65
2023-01-28T22:09:39.731Z,33.38
2023-01-28T22:12:08.174Z,34.08
2023-01-28T22:14:36.651Z,37.00
2023-01-28T22:17:04.952Z,34.65
2023-01-28T22:19:32.377Z,36.88
2023-01-28T22:21:59.757Z,35.55
2023-01-28T22:24:27.828Z,39.97
2023-01-28T22:26:55.251Z,36.75
2023-01-28T22:29:23.492Z,37.35
2023-01-28T22:31:53.084Z,36.97
2023-01-28T22:34:21.211Z,33.38
2023-01-28T22:36:50.235Z,35.17
2023-01-28T22:39:18.406Z,40.58
2023-01-28T22:41:46.754Z,39.88
2023-01-28T22:44:14.689Z,38.60
2023-01-28T22:46:42.434Z,38.22
2023-01-28T22:49:11.867Z,41.00
2023-01-28T22:51:39.340Z,35.50
2023-01-28T22:54:07.263Z,40.03
2023-01-28T22:56:34.674Z,35.85
2023-01-28T22:59:04.011Z,37.63
2023-01-28T23:01:32.214Z,39.50
2023-01-28T23:03:59.683Z,35.28
2023-01-28T23:06:28.198Z,36.22
2023-01-28T23:08:56.674Z,34.80
2023-01-28T23:11:25.526Z,33.38
2023-01-28T23:14:19.849Z,37.40
2023-01-28T23:17:06.907Z,38.58
2023-01-28T23:19:53.169Z,33.15
2023-01-28T23:22:49.657Z,32.33
2023-01-28T23:25:17.963Z,35.70
2023-01-28T23:27:45.940Z,35.15
2023-01-28T23:30:14.506Z,35.03
2023-01-28T23:32:53.855Z,33.67
2023-01-28T23:35:21.657Z,35.70
2023-01-28T23:37:49.112Z,34.75
2023-01-28T23:40:17.129Z,37.13
2023-01-28T23:42:49.521Z,41.63
2023-01-28T23:45:17.713Z,37.40
2023-01-28T23:47:45.392Z,37.97
2023-01-28T23:50:12.990Z,32.30
2023-01-28T23:52:40.457Z,33.80
